sensor_id;sensor_type;location;lat;lon;timestamp;P1;durP1;ratioP1;P2;durP2;ratioP2
29344;SDS011;16339;48.748;2.222;2023-04-09T00:02:21;26.08;;;11.95;;
29344;SDS011;16339;48.748;2.222;2023-04-09T00:04:50;26.95;;;12.15;;
29344;SDS011;16339;48.748;2.222;2023-04-09T00:07:19;27.30;;;12.52;;
29344;SDS011;16339;48.748;2.222;2023-04-09T00:09:47;22.98;;;11.50;;
29344;SDS011;16339;48.748;2.222;2023-04-09T00:12:16;23.40;;;11.73;;
29344;SDS011;16339;48.748;2.222;2023-04-09T00:14:45;21.67;;;11.52;;
29344;SDS011;16339;48.748;2.222;2023-04-09T00:17:16;24.05;;;12.15;;
29344;SDS011;16339;48.748;2.222;2023-04-09T00:19:45;24.30;;;11.73;;
29344;SDS011;16339;48.748;2.222;2023-04-09T00:22:14;26.55;;;12.13;;
29344;SDS011;16339;48.748;2.222;2023-04-09T00:24:43;27.95;;;13.55;;
29344;SDS011;16339;48.748;2.222;2023-04-09T00:27:12;21.25;;;11.32;;
29344;SDS011;16339;48.748;2.222;2023-04-09T00:29:40;25.08;;;12.27;;
29344;SDS011;16339;48.748;2.222;2023-04-09T00:32:09;25.02;;;12.30;;
29344;SDS011;16339;48.748;2.222;2023-04-09T00:34:40;24.95;;;12.35;;
29344;SDS011;16339;48.748;2.222;2023-04-09T00:37:09;24.20;;;12.10;;
29344;SDS011;16339;48.748;2.222;2023-04-09T00:39:38;27.95;;;12.05;;
29344;SDS011;16339;48.748;2.222;2023-04-09T00:42:06;27.00;;;12.48;;
29344;SDS011;16339;48.748;2.222;2023-04-09T00:44:35;23.85;;;12.27;;
29344;SDS011;16339;48.748;2.222;2023-04-09T00:47:04;23.98;;;11.93;;
29344;SDS011;16339;48.748;2.222;2023-04-09T00:49:32;27.70;;;13.13;;
29344;SDS011;16339;48.748;2.222;2023-04-09T00:52:04;25.10;;;13.00;;
29344;SDS011;16339;48.748;2.222;2023-04-09T00:57:01;25.95;;;12.43;;
29344;SDS011;16339;48.748;2.222;2023-04-09T00:59:30;21.75;;;11.82;;
29344;SDS011;16339;48.748;2.222;2023-04-09T01:01:59;26.00;;;12.75;;
29344;SDS011;16339;48.748;2.222;2023-04-09T01:04:28;25.70;;;13.25;;
29344;SDS011;16339;48.748;2.222;2023-04-09T01:06:57;26.55;;;13.05;;
29344;SDS011;16339;48.748;2.222;2023-04-09T01:09:36;30.52;;;13.30;;
29344;SDS011;16339;48.748;2.222;2023-04-09T01:12:11;27.98;;;13.43;;
29344;SDS011;16339;48.748;2.222;2023-04-09T01:14:58;25.50;;;13.18;;
29344;SDS011;16339;48.748;2.222;2023-04-09T01:17:34;24.08;;;13.38;;
29344;SDS011;16339;48.748;2.222;2023-04-09T01:20:09;28.80;;;14.02;;
29344;SDS011;16339;48.748;2.222;2023-04-09T01:22:47;26.70;;;13.95;;
29344;SDS011;16339;48.748;2.222;2023-04-09T01:25:28;26.75;;;13.30;;
29344;SDS011;16339;48.748;2.222;2023-04-09T01:28:16;22.48;;;12.13;;
29344;SDS011;16339;48.748;2.222;2023-04-09T01:30:47;22.20;;;12.27;;
29344;SDS011;16339;48.748;2.222;2023-04-09T01:33:17;25.55;;;13.65;;
29344;SDS011;16339;48.748;2.222;2023-04-09T01:35:47;26.42;;;13.32;;
29344;SDS011;16339;48.748;2.222;2023-04-09T01:38:19;27.77;;;13.90;;
29344;SDS011;16339;48.748;2.222;2023-04-09T01:40:48;25.48;;;12.88;;
29344;SDS011;16339;48.748;2.222;2023-04-09T01:43:20;28.05;;;13.73;;
29344;SDS011;16339;48.748;2.222;2023-04-09T01:45:50;27.17;;;13.68;;
29344;SDS011;16339;48.748;2.222;2023-04-09T01:48:20;29.20;;;14.32;;
29344;SDS011;16339;48.748;2.222;2023-04-09T01:50:49;29.90;;;13.30;;
29344;SDS011;16339;48.748;2.222;2023-04-09T01:53:18;32.95;;;13.88;;
29344;SDS011;16339;48.748;2.222;2023-04-09T01:55:52;27.48;;;13.40;;
29344;SDS011;16339;48.748;2.222;2023-04-09T01:58:24;33.53;;;13.75;;
29344;SDS011;16339;48.748;2.222;2023-04-09T02:00:54;27.35;;;14.18;;
29344;SDS011;16339;48.748;2.222;2023-04-09T02:03:34;27.50;;;14.35;;
29344;SDS011;16339;48.748;2.222;2023-04-09T02:06:08;28.35;;;13.82;;
29344;SDS011;16339;48.748;2.222;2023-04-09T02:08:41;31.15;;;13.45;;
29344;SDS011;16339;48.748;2.222;2023-04-09T02:11:13;31.70;;;14.13;;
29344;SDS011;16339;48.748;2.222;2023-04-09T02:13:45;31.48;;;14.35;;
29344;SDS011;16339;48.748;2.222;2023-04-09T02:16:19;27.20;;;13.40;;
29344;SDS011;16339;48.748;2.222;2023-04-09T02:18:51;23.55;;;13.18;;
29344;SDS011;16339;48.748;2.222;2023-04-09T02:21:21;33.30;;;14.52;;
29344;SDS011;16339;48.748;2.222;2023-04-09T02:23:51;27.25;;;14.15;;
29344;SDS011;16339;48.748;2.222;2023-04-09T02:26:19;26.83;;;14.32;;
29344;SDS011;16339;48.748;2.222;2023-04-09T02:28:51;28.35;;;14.50;;
29344;SDS011;16339;48.748;2.222;2023-04-09T02:31:19;30.40;;;14.68;;
29344;SDS011;16339;48.748;2.222;2023-04-09T02:33:48;28.70;;;13.90;;
29344;SDS011;16339;48.748;2.222;2023-04-09T02:36:21;31.50;;;14.60;;
29344;SDS011;16339;48.748;2.222;2023-04-09T02:38:52;27.52;;;14.60;;
29344;SDS011;16339;48.748;2.222;2023-04-09T02:41:20;32.65;;;14.60;;
29344;SDS011;16339;48.748;2.222;2023-04-09T02:43:52;26.33;;;14.27;;
29344;SDS011;16339;48.748;2.222;2023-04-09T02:46:21;31.58;;;15.65;;
29344;SDS011;16339;48.748;2.222;2023-04-09T02:48:49;26.40;;;14.10;;
29344;SDS011;16339;48.748;2.222;2023-04-09T02:51:18;28.13;;;14.05;;
29344;SDS011;16339;48.748;2.222;2023-04-09T02:53:47;26.80;;;14.57;;
29344;SDS011;16339;48.748;2.222;2023-04-09T02:56:16;24.83;;;12.93;;
29344;SDS011;16339;48.748;2.222;2023-04-09T02:58:44;27.80;;;14.30;;
29344;SDS011;16339;48.748;2.222;2023-04-09T03:01:18;30.42;;;13.70;;
29344;SDS011;16339;48.748;2.222;2023-04-09T03:03:47;31.15;;;15.15;;
29344;SDS011;16339;48.748;2.222;2023-04-09T03:06:15;30.75;;;14.75;;
29344;SDS011;16339;48.748;2.222;2023-04-09T03:08:44;26.77;;;14.15;;
29344;SDS011;16339;48.748;2.222;2023-04-09T03:11:13;29.63;;;15.32;;
29344;SDS011;16339;48.748;2.222;2023-04-09T03:13:42;31.80;;;14.63;;
29344;SDS011;16339;48.748;2.222;2023-04-09T03:16:10;38.33;;;14.60;;
29344;SDS011;16339;48.748;2.222;2023-04-09T03:18:42;34.00;;;15.52;;
29344;SDS011;16339;48.748;2.222;2023-04-09T03:21:10;38.30;;;16.42;;
29344;SDS011;16339;48.748;2.222;2023-04-09T03:23:40;32.75;;;16.35;;
29344;SDS011;16339;48.748;2.222;2023-04-09T03:26:08;31.50;;;15.60;;
29344;SDS011;16339;48.748;2.222;2023-04-09T03:28:37;34.30;;;15.00;;
29344;SDS011;16339;48.748;2.222;2023-04-09T03:31:06;34.67;;;14.88;;
29344;SDS011;16339;48.748;2.222;2023-04-09T03:33:34;30.23;;;14.35;;
29344;SDS011;16339;48.748;2.222;2023-04-09T03:36:06;28.90;;;14.60;;
29344;SDS011;16339;48.748;2.222;2023-04-09T03:38:35;31.83;;;14.82;;
29344;SDS011;16339;48.748;2.222;2023-04-09T03:41:04;33.63;;;14.43;;
29344;SDS011;16339;48.748;2.222;2023-04-09T03:43:33;34.78;;;15.18;;
29344;SDS011;16339;48.748;2.222;2023-04-09T03:46:05;35.80;;;16.38;;
29344;SDS011;16339;48.748;2.222;2023-04-09T03:48:38;31.90;;;15.32;;
29344;SDS011;16339;48.748;2.222;2023-04-09T03:51:12;39.50;;;16.35;;
29344;SDS011;16339;48.748;2.222;2023-04-09T03:53:42;36.95;;;16.35;;
29344;SDS011;16339;48.748;2.222;2023-04-09T03:56:11;36.42;;;17.13;;
29344;SDS011;16339;48.748;2.222;2023-04-09T03:58:40;34.33;;;16.15;;
29344;SDS011;16339;48.748;2.222;2023-04-09T04:01:08;33.88;;;16.23;;
29344;SDS011;16339;48.748;2.222;2023-04-09T04:03:37;39.28;;;17.27;;
29344;SDS011;16339;48.748;2.222;2023-04-09T04:06:06;38.50;;;16.73;;
29344;SDS011;16339;48.748;2.222;2023-04-09T04:08:37;35.53;;;17.77;;
29344;SDS011;16339;48.748;2.222;2023-04-09T04:11:06;37.65;;;18.27;;
29344;SDS011;16339;48.748;2.222;2023-04-09T04:13:34;41.28;;;17.58;;
29344;SDS011;16339;48.748;2.222;2023-04-09T04:16:05;36.50;;;17.73;;
29344;SDS011;16339;48.748;2.222;2023-04-09T04:18:35;39.35;;;18.15;;
29344;SDS011;16339;48.748;2.222;2023-04-09T04:21:03;38.30;;;17.98;;
29344;SDS011;16339;48.748;2.222;2023-04-09T04:23:32;39.75;;;18.92;;
29344;SDS011;16339;48.748;2.222;2023-04-09T04:26:04;41.25;;;18.80;;
29344;SDS011;16339;48.748;2.222;2023-04-09T04:28:34;40.17;;;17.30;;
29344;SDS011;16339;48.748;2.222;2023-04-09T04:31:06;39.83;;;17.40;;
29344;SDS011;16339;48.748;2.222;2023-04-09T04:33:36;38.05;;;15.98;;
29344;SDS011;16339;48.748;2.222;2023-04-09T04:36:06;35.90;;;16.15;;
29344;SDS011;16339;48.748;2.222;2023-04-09T04:38:36;36.88;;;15.68;;
29344;SDS011;16339;48.748;2.222;2023-04-09T04:41:09;33.72;;;15.98;;
29344;SDS011;16339;48.748;2.222;2023-04-09T04:43:38;43.08;;;17.83;;
29344;SDS011;16339;48.748;2.222;2023-04-09T04:46:07;41.33;;;17.65;;
29344;SDS011;16339;48.748;2.222;2023-04-09T04:48:36;39.20;;;17.95;;
29344;SDS011;16339;48.748;2.222;2023-04-09T04:51:05;39.15;;;18.15;;
29344;SDS011;16339;48.748;2.222;2023-04-09T04:53:33;37.80;;;18.48;;
29344;SDS011;16339;48.748;2.222;2023-04-09T04:56:02;37.47;;;17.52;;
29344;SDS011;16339;48.748;2.222;2023-04-09T04:58:34;38.92;;;18.40;;
29344;SDS011;16339;48.748;2.222;2023-04-09T05:01:03;38.30;;;17.55;;
29344;SDS011;16339;48.748;2.222;2023-04-09T05:03:31;38.08;;;18.27;;
29344;SDS011;16339;48.748;2.222;2023-04-09T05:06:00;35.85;;;17.45;;
29344;SDS011;16339;48.748;2.222;2023-04-09T05:08:29;41.65;;;17.85;;
29344;SDS011;16339;48.748;2.222;2023-04-09T05:10:57;44.30;;;17.95;;
29344;SDS011;16339;48.748;2.222;2023-04-09T05:13:26;38.90;;;17.38;;
29344;SDS011;16339;48.748;2.222;2023-04-09T05:15:58;38.97;;;18.15;;
29344;SDS011;16339;48.748;2.222;2023-04-09T05:18:26;41.38;;;17.80;;
29344;SDS011;16339;48.748;2.222;2023-04-09T05:20:55;38.47;;;17.33;;
29344;SDS011;16339;48.748;2.222;2023-04-09T05:23:23;35.70;;;17.52;;
29344;SDS011;16339;48.748;2.222;2023-04-09T05:25:52;36.13;;;17.25;;
29344;SDS011;16339;48.748;2.222;2023-04-09T05:28:21;35.47;;;16.48;;
29344;SDS011;16339;48.748;2.222;2023-04-09T05:30:50;33.03;;;16.67;;
29344;SDS011;16339;48.748;2.222;2023-04-09T05:33:21;34.03;;;17.08;;
29344;SDS011;16339;48.748;2.222;2023-04-09T05:35:49;38.72;;;18.83;;
29344;SDS011;16339;48.748;2.222;2023-04-09T05:38:18;42.22;;;17.67;;
29344;SDS011;16339;48.748;2.222;2023-04-09T05:40:47;38.58;;;17.08;;
29344;SDS011;16339;48.748;2.222;2023-04-09T05:43:15;37.42;;;17.85;;
29344;SDS011;16339;48.748;2.222;2023-04-09T05:45:44;37.42;;;17.38;;
29344;SDS011;16339;48.748;2.222;2023-04-09T05:48:13;44.72;;;18.35;;
29344;SDS011;16339;48.748;2.222;2023-04-09T05:50:50;40.72;;;17.13;;
29344;SDS011;16339;48.748;2.222;2023-04-09T05:53:19;39.13;;;17.50;;
29344;SDS011;16339;48.748;2.222;2023-04-09T05:55:48;38.53;;;18.00;;
29344;SDS011;16339;48.748;2.222;2023-04-09T05:58:17;43.72;;;17.88;;
29344;SDS011;16339;48.748;2.222;2023-04-09T06:00:45;37.30;;;18.00;;
29344;SDS011;16339;48.748;2.222;2023-04-09T06:03:15;37.67;;;18.60;;
29344;SDS011;16339;48.748;2.222;2023-04-09T06:05:44;46.97;;;19.20;;
29344;SDS011;16339;48.748;2.222;2023-04-09T06:08:15;40.28;;;17.58;;
29344;SDS011;16339;48.748;2.222;2023-04-09T06:13:13;43.42;;;17.38;;
29344;SDS011;16339;48.748;2.222;2023-04-09T06:15:41;37.53;;;17.73;;
29344;SDS011;16339;48.748;2.222;2023-04-09T06:18:10;35.67;;;18.20;;
29344;SDS011;16339;48.748;2.222;2023-04-09T06:20:39;45.33;;;18.85;;
29344;SDS011;16339;48.748;2.222;2023-04-09T06:23:08;40.05;;;18.95;;
29344;SDS011;16339;48.748;2.222;2023-04-09T06:25:39;40.95;;;19.85;;
29344;SDS011;16339;48.748;2.222;2023-04-09T06:28:08;40.70;;;19.25;;
29344;SDS011;16339;48.748;2.222;2023-04-09T06:30:37;37.95;;;19.85;;
29344;SDS011;16339;48.748;2.222;2023-04-09T06:33:06;43.30;;;21.05;;
29344;SDS011;16339;48.748;2.222;2023-04-09T06:35:35;44.53;;;19.48;;
29344;SDS011;16339;48.748;2.222;2023-04-09T06:38:03;41.67;;;19.38;;
29344;SDS011;16339;48.748;2.222;2023-04-09T06:40:35;43.08;;;19.92;;
29344;SDS011;16339;48.748;2.222;2023-04-09T06:43:07;42.53;;;20.98;;
29344;SDS011;16339;48.748;2.222;2023-04-09T06:45:36;43.70;;;20.67;;
29344;SDS011;16339;48.748;2.222;2023-04-09T06:48:05;42.15;;;20.25;;
29344;SDS011;16339;48.748;2.222;2023-04-09T06:50:33;41.45;;;20.08;;
29344;SDS011;16339;48.748;2.222;2023-04-09T06:53:02;44.35;;;22.15;;
29344;SDS011;16339;48.748;2.222;2023-04-09T06:55:31;43.67;;;21.33;;
29344;SDS011;16339;48.748;2.222;2023-04-09T06:57:59;45.42;;;22.05;;
29344;SDS011;16339;48.748;2.222;2023-04-09T07:00:31;50.42;;;23.88;;
29344;SDS011;16339;48.748;2.222;2023-04-09T07:05:29;50.90;;;23.95;;
29344;SDS011;16339;48.748;2.222;2023-04-09T07:07:58;46.28;;;22.67;;
29344;SDS011;16339;48.748;2.222;2023-04-09T07:10:26;47.22;;;23.13;;
29344;SDS011;16339;48.748;2.222;2023-04-09T07:12:55;52.08;;;23.00;;
29344;SDS011;16339;48.748;2.222;2023-04-09T07:15:24;55.45;;;23.85;;
29344;SDS011;16339;48.748;2.222;2023-04-09T07:17:55;47.45;;;23.00;;
29344;SDS011;16339;48.748;2.222;2023-04-09T07:20:24;55.15;;;25.15;;
29344;SDS011;16339;48.748;2.222;2023-04-09T07:22:53;48.30;;;24.08;;
29344;SDS011;16339;48.748;2.222;2023-04-09T07:25:21;57.10;;;25.52;;
29344;SDS011;16339;48.748;2.222;2023-04-09T07:27:50;54.30;;;24.02;;
29344;SDS011;16339;48.748;2.222;2023-04-09T07:30:19;47.55;;;24.90;;
29344;SDS011;16339;48.748;2.222;2023-04-09T07:32:48;49.78;;;23.75;;
29344;SDS011;16339;48.748;2.222;2023-04-09T07:35:20;54.00;;;24.98;;
29344;SDS011;16339;48.748;2.222;2023-04-09T07:40:17;50.97;;;24.55;;
29344;SDS011;16339;48.748;2.222;2023-04-09T07:42:45;52.63;;;25.35;;
29344;SDS011;16339;48.748;2.222;2023-04-09T07:45:14;53.65;;;24.40;;
29344;SDS011;16339;48.748;2.222;2023-04-09T07:47:43;52.05;;;25.83;;
29344;SDS011;16339;48.748;2.222;2023-04-09T07:50:12;53.72;;;24.73;;
29344;SDS011;16339;48.748;2.222;2023-04-09T07:52:43;50.95;;;25.38;;
29344;SDS011;16339;48.748;2.222;2023-04-09T07:55:12;49.55;;;25.33;;
29344;SDS011;16339;48.748;2.222;2023-04-09T07:57:41;53.10;;;24.75;;
29344;SDS011;16339;48.748;2.222;2023-04-09T08:00:10;57.17;;;25.80;;
29344;SDS011;16339;48.748;2.222;2023-04-09T08:02:39;53.90;;;25.02;;
29344;SDS011;16339;48.748;2.222;2023-04-09T08:05:08;48.35;;;25.42;;
29344;SDS011;16339;48.748;2.222;2023-04-09T08:07:37;52.75;;;26.35;;
29344;SDS011;16339;48.748;2.222;2023-04-09T08:10:09;53.17;;;26.60;;
29344;SDS011;16339;48.748;2.222;2023-04-09T08:12:40;59.13;;;26.98;;
29344;SDS011;16339;48.748;2.222;2023-04-09T08:15:09;51.92;;;25.05;;
29344;SDS011;16339;48.748;2.222;2023-04-09T08:20:09;90.80;;;36.38;;
29344;SDS011;16339;48.748;2.222;2023-04-09T08:22:41;76.50;;;33.65;;
29344;SDS011;16339;48.748;2.222;2023-04-09T08:25:12;53.83;;;24.70;;
29344;SDS011;16339;48.748;2.222;2023-04-09T08:27:40;49.63;;;23.63;;
29344;SDS011;16339;48.748;2.222;2023-04-09T08:30:10;44.00;;;22.48;;
29344;SDS011;16339;48.748;2.222;2023-04-09T08:32:40;43.45;;;22.30;;
29344;SDS011;16339;48.748;2.222;2023-04-09T08:35:09;51.08;;;24.27;;
29344;SDS011;16339;48.748;2.222;2023-04-09T08:37:38;53.70;;;23.70;;
29344;SDS011;16339;48.748;2.222;2023-04-09T08:40:07;48.42;;;24.05;;
29344;SDS011;16339;48.748;2.222;2023-04-09T08:42:41;54.75;;;24.50;;
29344;SDS011;16339;48.748;2.222;2023-04-09T08:45:12;45.90;;;23.85;;
29344;SDS011;16339;48.748;2.222;2023-04-09T08:47:41;48.55;;;23.95;;
29344;SDS011;16339;48.748;2.222;2023-04-09T08:50:12;44.53;;;23.02;;
29344;SDS011;16339;48.748;2.222;2023-04-09T08:52:41;45.40;;;23.58;;
29344;SDS011;16339;48.748;2.222;2023-04-09T08:55:10;45.83;;;22.50;;
29344;SDS011;16339;48.748;2.222;2023-04-09T08:57:44;39.15;;;21.17;;
29344;SDS011;16339;48.748;2.222;2023-04-09T09:00:13;39.35;;;21.20;;
29344;SDS011;16339;48.748;2.222;2023-04-09T09:05:34;36.60;;;20.38;;
29344;SDS011;16339;48.748;2.222;2023-04-09T09:08:04;43.45;;;19.38;;
29344;SDS011;16339;48.748;2.222;2023-04-09T09:10:38;38.23;;;19.40;;
29344;SDS011;16339;48.748;2.222;2023-04-09T09:13:20;39.67;;;18.98;;
29344;SDS011;16339;48.748;2.222;2023-04-09T09:15:51;37.85;;;19.38;;
29344;SDS011;16339;48.748;2.222;2023-04-09T09:18:21;39.30;;;19.65;;
29344;SDS011;16339;48.748;2.222;2023-04-09T09:21:14;37.40;;;19.13;;
29344;SDS011;16339;48.748;2.222;2023-04-09T09:23:44;35.63;;;18.48;;
29344;SDS011;16339;48.748;2.222;2023-04-09T09:26:15;36.97;;;18.20;;
29344;SDS011;16339;48.748;2.222;2023-04-09T09:28:48;36.87;;;19.53;;
29344;SDS011;16339;48.748;2.222;2023-04-09T09:31:17;33.13;;;16.73;;
29344;SDS011;16339;48.748;2.222;2023-04-09T09:33:47;32.78;;;16.30;;
29344;SDS011;16339;48.748;2.222;2023-04-09T09:36:29;31.80;;;16.52;;
29344;SDS011;16339;48.748;2.222;2023-04-09T09:38:58;32.35;;;16.85;;
29344;SDS011;16339;48.748;2.222;2023-04-09T09:41:34;33.08;;;16.92;;
29344;SDS011;16339;48.748;2.222;2023-04-09T09:44:06;31.00;;;16.02;;
29344;SDS011;16339;48.748;2.222;2023-04-09T09:46:36;27.88;;;15.27;;
29344;SDS011;16339;48.748;2.222;2023-04-09T09:49:07;29.08;;;15.20;;
29344;SDS011;16339;48.748;2.222;2023-04-09T09:51:36;29.23;;;15.27;;
29344;SDS011;16339;48.748;2.222;2023-04-09T09:54:07;28.92;;;14.98;;
29344;SDS011;16339;48.748;2.222;2023-04-09T09:56:37;32.65;;;15.68;;
29344;SDS011;16339;48.748;2.222;2023-04-09T09:59:14;28.40;;;14.88;;
29344;SDS011;16339;48.748;2.222;2023-04-09T10:01:46;27.05;;;15.20;;
29344;SDS011;16339;48.748;2.222;2023-04-09T10:04:18;32.40;;;14.95;;
29344;SDS011;16339;48.748;2.222;2023-04-09T10:06:48;27.25;;;14.00;;
29344;SDS011;16339;48.748;2.222;2023-04-09T10:09:18;24.83;;;12.45;;
29344;SDS011;16339;48.748;2.222;2023-04-09T10:11:48;26.38;;;14.00;;
29344;SDS011;16339;48.748;2.222;2023-04-09T10:14:20;25.38;;;13.40;;
29344;SDS011;16339;48.748;2.222;2023-04-09T10:16:50;27.20;;;13.68;;
29344;SDS011;16339;48.748;2.222;2023-04-09T10:19:18;23.75;;;13.10;;
29344;SDS011;16339;48.748;2.222;2023-04-09T10:21:49;23.60;;;12.82;;
29344;SDS011;16339;48.748;2.222;2023-04-09T10:24:24;24.17;;;13.15;;
29344;SDS011;16339;48.748;2.222;2023-04-09T10:26:53;23.27;;;13.15;;
29344;SDS011;16339;48.748;2.222;2023-04-09T10:29:28;24.27;;;12.20;;
29344;SDS011;16339;48.748;2.222;2023-04-09T10:32:02;22.08;;;11.93;;
29344;SDS011;16339;48.748;2.222;2023-04-09T10:34:33;19.75;;;12.02;;
29344;SDS011;16339;48.748;2.222;2023-04-09T10:37:05;26.55;;;12.70;;
29344;SDS011;16339;48.748;2.222;2023-04-09T10:39:43;18.50;;;10.68;;
29344;SDS011;16339;48.748;2.222;2023-04-09T10:42:13;22.27;;;11.35;;
29344;SDS011;16339;48.748;2.222;2023-04-09T10:44:48;21.02;;;11.70;;
29344;SDS011;16339;48.748;2.222;2023-04-09T10:47:32;32.65;;;10.60;;
29344;SDS011;16339;48.748;2.222;2023-04-09T10:50:15;19.38;;;11.43;;
29344;SDS011;16339;48.748;2.222;2023-04-09T10:52:45;19.08;;;10.93;;
29344;SDS011;16339;48.748;2.222;2023-04-09T10:55:29;24.48;;;13.07;;
29344;SDS011;16339;48.748;2.222;2023-04-09T10:58:01;20.15;;;11.55;;
29344;SDS011;16339;48.748;2.222;2023-04-09T11:00:35;33.70;;;12.23;;
29344;SDS011;16339;48.748;2.222;2023-04-09T11:03:10;18.90;;;10.70;;
29344;SDS011;16339;48.748;2.222;2023-04-09T11:05:52;23.88;;;12.48;;
29344;SDS011;16339;48.748;2.222;2023-04-09T11:08:27;28.63;;;12.45;;
29344;SDS011;16339;48.748;2.222;2023-04-09T11:10:57;19.42;;;12.27;;
29344;SDS011;16339;48.748;2.222;2023-04-09T11:13:26;19.63;;;11.38;;
29344;SDS011;16339;48.748;2.222;2023-04-09T11:16:00;21.73;;;11.85;;
29344;SDS011;16339;48.748;2.222;2023-04-09T11:18:30;15.73;;;7.90;;
29344;SDS011;16339;48.748;2.222;2023-04-09T11:21:01;18.83;;;10.07;;
29344;SDS011;16339;48.748;2.222;2023-04-09T11:23:33;14.88;;;8.80;;
29344;SDS011;16339;48.748;2.222;2023-04-09T11:26:01;14.70;;;8.25;;
29344;SDS011;16339;48.748;2.222;2023-04-09T11:28:30;11.88;;;7.68;;
29344;SDS011;16339;48.748;2.222;2023-04-09T11:31:06;15.73;;;8.13;;
29344;SDS011;16339;48.748;2.222;2023-04-09T11:33:34;22.77;;;9.07;;
29344;SDS011;16339;48.748;2.222;2023-04-09T11:36:06;17.80;;;10.85;;
29344;SDS011;16339;48.748;2.222;2023-04-09T11:38:35;14.52;;;9.38;;
29344;SDS011;16339;48.748;2.222;2023-04-09T11:41:05;17.23;;;9.35;;
29344;SDS011;16339;48.748;2.222;2023-04-09T11:46:08;15.02;;;7.97;;
29344;SDS011;16339;48.748;2.222;2023-04-09T11:48:37;14.00;;;8.13;;
29344;SDS011;16339;48.748;2.222;2023-04-09T11:51:06;14.65;;;8.25;;
29344;SDS011;16339;48.748;2.222;2023-04-09T11:53:35;15.65;;;8.65;;
29344;SDS011;16339;48.748;2.222;2023-04-09T11:56:05;16.85;;;8.50;;
29344;SDS011;16339;48.748;2.222;2023-04-09T11:58:34;14.13;;;8.90;;
29344;SDS011;16339;48.748;2.222;2023-04-09T12:01:03;19.13;;;9.35;;
29344;SDS011;16339;48.748;2.222;2023-04-09T12:03:34;14.50;;;8.65;;
29344;SDS011;16339;48.748;2.222;2023-04-09T12:06:03;15.40;;;8.88;;
29344;SDS011;16339;48.748;2.222;2023-04-09T12:08:35;15.43;;;8.43;;
29344;SDS011;16339;48.748;2.222;2023-04-09T12:11:08;13.07;;;8.13;;
29344;SDS011;16339;48.748;2.222;2023-04-09T12:13:40;13.38;;;7.50;;
29344;SDS011;16339;48.748;2.222;2023-04-09T12:16:12;13.77;;;7.95;;
29344;SDS011;16339;48.748;2.222;2023-04-09T12:18:44;14.80;;;7.82;;
29344;SDS011;16339;48.748;2.222;2023-04-09T12:21:14;13.25;;;8.07;;
29344;SDS011;16339;48.748;2.222;2023-04-09T12:23:46;13.80;;;8.23;;
29344;SDS011;16339;48.748;2.222;2023-04-09T12:26:14;19.38;;;7.97;;
29344;SDS011;16339;48.748;2.222;2023-04-09T12:28:43;12.95;;;7.70;;
29344;SDS011;16339;48.748;2.222;2023-04-09T12:31:12;12.15;;;7.22;;
29344;SDS011;16339;48.748;2.222;2023-04-09T12:33:40;11.43;;;7.03;;
29344;SDS011;16339;48.748;2.222;2023-04-09T12:36:12;11.80;;;6.68;;
29344;SDS011;16339;48.748;2.222;2023-04-09T12:38:40;10.65;;;5.65;;
29344;SDS011;16339;48.748;2.222;2023-04-09T12:41:09;10.43;;;6.47;;
29344;SDS011;16339;48.748;2.222;2023-04-09T12:43:38;11.35;;;6.10;;
29344;SDS011;16339;48.748;2.222;2023-04-09T12:46:07;10.02;;;5.68;;
29344;SDS011;16339;48.748;2.222;2023-04-09T12:48:36;14.77;;;7.35;;
29344;SDS011;16339;48.748;2.222;2023-04-09T12:51:10;11.38;;;7.18;;
29344;SDS011;16339;48.748;2.222;2023-04-09T12:53:43;10.57;;;6.65;;
29344;SDS011;16339;48.748;2.222;2023-04-09T12:56:12;8.75;;;5.57;;
29344;SDS011;16339;48.748;2.222;2023-04-09T12:58:40;9.02;;;5.70;;
29344;SDS011;16339;48.748;2.222;2023-04-09T13:01:09;7.90;;;5.50;;
29344;SDS011;16339;48.748;2.222;2023-04-09T13:03:38;10.90;;;6.60;;
29344;SDS011;16339;48.748;2.222;2023-04-09T13:06:07;13.77;;;6.32;;
29344;SDS011;16339;48.748;2.222;2023-04-09T13:11:08;12.65;;;6.80;;
29344;SDS011;16339;48.748;2.222;2023-04-09T13:13:40;11.23;;;7.07;;
29344;SDS011;16339;48.748;2.222;2023-04-09T13:16:08;11.15;;;6.40;;
29344;SDS011;16339;48.748;2.222;2023-04-09T13:18:37;10.77;;;6.20;;
29344;SDS011;16339;48.748;2.222;2023-04-09T13:21:06;10.70;;;6.50;;
29344;SDS011;16339;48.748;2.222;2023-04-09T13:23:42;13.13;;;6.40;;
29344;SDS011;16339;48.748;2.222;2023-04-09T13:26:11;11.90;;;7.05;;
29344;SDS011;16339;48.748;2.222;2023-04-09T13:28:40;10.60;;;6.55;;
29344;SDS011;16339;48.748;2.222;2023-04-09T13:31:11;13.57;;;6.80;;
29344;SDS011;16339;48.748;2.222;2023-04-09T13:33:40;13.50;;;7.53;;
29344;SDS011;16339;48.748;2.222;2023-04-09T13:36:11;13.30;;;7.25;;
29344;SDS011;16339;48.748;2.222;2023-04-09T13:41:11;10.05;;;7.10;;
29344;SDS011;16339;48.748;2.222;2023-04-09T13:43:43;13.50;;;6.70;;
29344;SDS011;16339;48.748;2.222;2023-04-09T13:46:12;13.13;;;7.63;;
29344;SDS011;16339;48.748;2.222;2023-04-09T13:48:41;10.45;;;6.72;;
29344;SDS011;16339;48.748;2.222;2023-04-09T13:51:12;10.32;;;6.35;;
29344;SDS011;16339;48.748;2.222;2023-04-09T13:53:45;11.85;;;6.32;;
29344;SDS011;16339;48.748;2.222;2023-04-09T13:56:14;11.15;;;6.35;;
29344;SDS011;16339;48.748;2.222;2023-04-09T13:58:44;13.57;;;6.78;;
29344;SDS011;16339;48.748;2.222;2023-04-09T14:01:13;9.88;;;6.32;;
29344;SDS011;16339;48.748;2.222;2023-04-09T14:03:46;11.10;;;7.07;;
29344;SDS011;16339;48.748;2.222;2023-04-09T14:08:51;9.68;;;6.05;;
29344;SDS011;16339;48.748;2.222;2023-04-09T14:11:22;9.90;;;5.68;;
29344;SDS011;16339;48.748;2.222;2023-04-09T14:13:52;11.45;;;6.00;;
29344;SDS011;16339;48.748;2.222;2023-04-09T14:16:21;9.23;;;5.97;;
29344;SDS011;16339;48.748;2.222;2023-04-09T14:18:57;9.32;;;6.03;;
29344;SDS011;16339;48.748;2.222;2023-04-09T14:21:30;11.75;;;6.43;;
29344;SDS011;16339;48.748;2.222;2023-04-09T14:23:59;10.45;;;5.80;;
29344;SDS011;16339;48.748;2.222;2023-04-09T14:26:28;11.00;;;6.82;;
29344;SDS011;16339;48.748;2.222;2023-04-09T14:29:02;10.88;;;6.53;;
29344;SDS011;16339;48.748;2.222;2023-04-09T14:31:31;8.32;;;5.32;;
29344;SDS011;16339;48.748;2.222;2023-04-09T14:33:59;11.25;;;6.25;;
29344;SDS011;16339;48.748;2.222;2023-04-09T14:36:37;11.02;;;5.97;;
29344;SDS011;16339;48.748;2.222;2023-04-09T14:39:06;9.13;;;6.10;;
29344;SDS011;16339;48.748;2.222;2023-04-09T14:41:35;8.90;;;5.95;;
29344;SDS011;16339;48.748;2.222;2023-04-09T14:44:04;7.20;;;5.00;;
29344;SDS011;16339;48.748;2.222;2023-04-09T14:49:06;12.43;;;6.45;;
29344;SDS011;16339;48.748;2.222;2023-04-09T14:51:38;9.02;;;5.38;;
29344;SDS011;16339;48.748;2.222;2023-04-09T14:56:36;8.18;;;5.55;;
29344;SDS011;16339;48.748;2.222;2023-04-09T14:59:05;9.45;;;5.45;;
29344;SDS011;16339;48.748;2.222;2023-04-09T15:01:35;8.27;;;5.40;;
29344;SDS011;16339;48.748;2.222;2023-04-09T15:04:04;10.63;;;6.40;;
29344;SDS011;16339;48.748;2.222;2023-04-09T15:06:33;9.45;;;6.03;;
29344;SDS011;16339;48.748;2.222;2023-04-09T15:09:04;10.82;;;5.63;;
29344;SDS011;16339;48.748;2.222;2023-04-09T15:14:03;8.00;;;5.85;;
29344;SDS011;16339;48.748;2.222;2023-04-09T15:16:31;9.43;;;5.50;;
29344;SDS011;16339;48.748;2.222;2023-04-09T15:19:03;13.45;;;5.82;;